createdAt,value
2022-08-08T00:00:53.944Z,45.10
2022-08-08T00:03:20.004Z,45.11
2022-08-08T00:06:03.787Z,45.11
2022-08-08T00:08:41.182Z,44.94
2022-08-08T00:11:47.184Z,44.95
2022-08-08T00:14:48.106Z,45.08
2022-08-08T00:18:02.812Z,45.14
2022-08-08T00:20:49.905Z,46.14
2022-08-08T00:23:28.336Z,46.00
2022-08-08T00:26:21.904Z,46.31
2022-08-08T00:28:59.313Z,46.70
2022-08-08T00:32:28.420Z,46.70
2022-08-08T00:34:53.329Z,46.89
2022-08-08T00:37:48.127Z,46.69
2022-08-08T00:41:09.858Z,46.81
2022-08-08T00:43:20.090Z,47.33
2022-08-08T00:46:18.913Z,47.22
2022-08-08T00:48:59.273Z,47.62
2022-08-08T00:51:47.847Z,47.74
2022-08-08T00:54:37.813Z,48.02
2022-08-08T00:57:40.757Z,48.08
2022-08-08T01:00:47.027Z,48.30
2022-08-08T01:03:57.951Z,48.61
2022-08-08T01:07:00.266Z,48.62
2022-08-08T01:09:41.580Z,48.80
2022-08-08T01:12:15.381Z,50.51
2022-08-08T01:15:10.791Z,51.94
2022-08-08T01:18:16.375Z,50.01
2022-08-08T01:21:07.390Z,49.88
2022-08-08T01:24:05.383Z,49.75
2022-08-08T01:26:53.626Z,49.85
2022-08-08T01:29:59.760Z,49.90
2022-08-08T01:33:00.132Z,49.81
2022-08-08T01:36:01.204Z,49.87
2022-08-08T01:39:01.094Z,49.74
2022-08-08T01:41:53.637Z,49.24
2022-08-08T01:44:53.678Z,49.08
2022-08-08T01:48:16.268Z,49.16
2022-08-08T01:50:48.907Z,49.41
2022-08-08T01:55:15.177Z,49.45
2022-08-08T01:56:48.770Z,49.34
2022-08-08T01:59:23.853Z,49.22
2022-08-08T02:02:34.307Z,49.33
2022-08-08T02:05:56.410Z,49.18
2022-08-08T02:08:35.076Z,48.91
2022-08-08T02:11:52.725Z,48.94
2022-08-08T02:14:55.695Z,48.86
2022-08-08T02:17:46.520Z,48.76
2022-08-08T02:21:08.298Z,48.78
2022-08-08T02:23:47.504Z,48.97
2022-08-08T02:26:37.548Z,48.84
2022-08-08T02:29:41.501Z,49.00
2022-08-08T02:32:27.365Z,49.18
2022-08-08T02:35:16.528Z,49.68
2022-08-08T02:37:58.392Z,49.85
2022-08-08T02:41:07.801Z,49.94
2022-08-08T02:44:37.153Z,50.16
2022-08-08T02:46:53.068Z,50.23
2022-08-08T02:49:59.005Z,50.28
2022-08-08T02:53:05.870Z,50.43
2022-08-08T02:56:03.288Z,50.76
2022-08-08T02:58:37.557Z,50.83
2022-08-08T03:01:14.929Z,51.14
2022-08-08T03:05:05.295Z,51.17
2022-08-08T03:07:24.638Z,51.02
2022-08-08T03:10:31.574Z,51.11
2022-08-08T03:15:53.920Z,51.25
2022-08-08T03:16:57.493Z,51.58
2022-08-08T03:19:51.103Z,51.74
2022-08-08T03:22:38.546Z,51.86
2022-08-08T03:25:18.033Z,52.21
2022-08-08T03:27:56.859Z,52.47
2022-08-08T03:30:26.374Z,52.61
2022-08-08T03:33:55.355Z,52.99
2022-08-08T03:36:02.728Z,52.99
2022-08-08T03:38:58.087Z,53.01
2022-08-08T03:42:03.893Z,52.95
2022-08-08T03:44:08.151Z,52.99
2022-08-08T03:46:50.124Z,52.86
2022-08-08T03:49:58.814Z,52.73
2022-08-08T03:52:13.133Z,52.90
2022-08-08T03:54:52.383Z,52.93
2022-08-08T03:58:33.576Z,52.70
2022-08-08T04:00:21.669Z,52.50
2022-08-08T04:03:03.512Z,52.63
2022-08-08T04:05:35.371Z,52.78
2022-08-08T04:08:06.419Z,52.79
2022-08-08T04:10:36.373Z,52.53
2022-08-08T04:13:17.985Z,52.55
2022-08-08T04:16:03.846Z,52.36
2022-08-08T04:18:38.212Z,52.19
2022-08-08T04:21:12.763Z,52.22
2022-08-08T04:24:18.855Z,51.97
2022-08-08T04:26:35.595Z,52.12
2022-08-08T04:29:16.701Z,52.09
2022-08-08T04:31:58.591Z,51.56
2022-08-08T04:34:32.185Z,51.67
2022-08-08T04:37:11.839Z,51.62
2022-08-08T04:40:04.318Z,51.17
2022-08-08T04:42:31.539Z,51.08
2022-08-08T04:45:01.020Z,50.87
2022-08-08T04:47:29.028Z,50.84
2022-08-08T04:50:00.430Z,51.17
2022-08-08T04:52:34.058Z,50.90
2022-08-08T04:55:04.484Z,50.46
2022-08-08T04:57:34.996Z,50.63
2022-08-08T05:00:06.357Z,50.60
2022-08-08T05:02:34.846Z,50.50
2022-08-08T05:05:03.892Z,50.20
2022-08-08T05:07:37.846Z,49.39
2022-08-08T05:10:12.811Z,49.63
2022-08-08T05:12:53.349Z,49.46
2022-08-08T05:16:48.567Z,49.17
2022-08-08T05:18:17.269Z,49.37
2022-08-08T05:20:50.070Z,49.04
2022-08-08T05:23:19.780Z,48.54
2022-08-08T05:25:49.657Z,48.01
2022-08-08T05:28:48.448Z,47.91
2022-08-08T05:31:08.477Z,47.77
2022-08-08T05:33:49.322Z,47.62
2022-08-08T05:36:25.411Z,46.89
2022-08-08T05:38:59.034Z,46.57
2022-08-08T05:41:27.820Z,46.45
2022-08-08T05:44:11.273Z,45.97
2022-08-08T05:46:41.254Z,45.76
2022-08-08T05:49:16.664Z,45.59
2022-08-08T05:51:48.671Z,45.34
2022-08-08T05:54:28.285Z,45.03
2022-08-08T05:57:15.177Z,45.06
2022-08-08T05:59:59.729Z,44.73
2022-08-08T06:02:52.390Z,44.64
2022-08-08T06:05:34.095Z,43.86
2022-08-08T06:08:09.054Z,44.11
2022-08-08T06:10:40.729Z,44.02
2022-08-08T06:13:09.720Z,43.98
2022-08-08T06:15:50.863Z,43.50
2022-08-08T06:18:27.411Z,43.37
2022-08-08T06:20:59.024Z,43.58
2022-08-08T06:24:02.172Z,42.90
2022-08-08T06:26:43.361Z,42.87
2022-08-08T06:29:26.341Z,41.95
2022-08-08T06:32:10.422Z,42.77
2022-08-08T06:34:56.501Z,42.24
2022-08-08T06:37:39.965Z,41.57
2022-08-08T06:40:15.936Z,42.19
2022-08-08T06:42:53.841Z,41.84
2022-08-08T06:45:23.877Z,41.77
2022-08-08T06:48:00.749Z,41.99
2022-08-08T06:50:33.579Z,40.88
2022-08-08T06:53:09.678Z,41.67
2022-08-08T06:55:43.264Z,40.74
2022-08-08T06:58:11.345Z,40.31
2022-08-08T07:00:41.014Z,40.49
2022-08-08T07:03:52.682Z,39.99
2022-08-08T07:06:05.873Z,39.98
2022-08-08T07:08:39.042Z,39.80
2022-08-08T07:11:22.747Z,40.96
2022-08-08T07:14:00.301Z,39.77
2022-08-08T07:16:51.169Z,39.93
2022-08-08T07:19:39.545Z,40.80
2022-08-08T07:22:18.525Z,40.21
2022-08-08T07:25:09.817Z,39.51
2022-08-08T07:28:01.893Z,39.07
2022-08-08T07:30:35.947Z,39.06
2022-08-08T07:33:04.413Z,42.32
2022-08-08T07:35:35.537Z,38.38
2022-08-08T07:38:18.303Z,39.09
2022-08-08T07:40:59.183Z,38.14
2022-08-08T07:43:38.011Z,38.05
2022-08-08T07:46:23.961Z,37.30
2022-08-08T07:48:54.977Z,36.92
2022-08-08T07:51:44.914Z,37.40
2022-08-08T07:54:26.665Z,37.80
2022-08-08T08:00:15.826Z,37.87
2022-08-08T08:03:09.826Z,38.93
2022-08-08T08:05:44.281Z,38.52
2022-08-08T08:08:21.478Z,37.58
2022-08-08T08:10:59.642Z,38.77
2022-08-08T08:13:43.185Z,37.29
2022-08-08T08:16:33.135Z,36.78
2022-08-08T08:19:04.404Z,37.32
2022-08-08T08:21:52.796Z,38.15
2022-08-08T08:24:26.748Z,37.08
2022-08-08T08:27:02.697Z,37.68
2022-08-08T08:29:31.535Z,39.03
2022-08-08T08:32:05.394Z,36.80
2022-08-08T08:34:35.588Z,37.15
2022-08-08T08:37:08.490Z,36.26
2022-08-08T08:39:39.215Z,35.68
2022-08-08T08:42:29.146Z,36.80
2022-08-08T08:45:21.097Z,36.06
2022-08-08T08:47:55.073Z,36.28
2022-08-08T08:50:33.282Z,36.35
2022-08-08T08:53:54.774Z,35.54
2022-08-08T08:56:02.484Z,35.73
2022-08-08T08:58:46.839Z,35.28
2022-08-08T09:01:22.020Z,34.77
2022-08-08T09:03:59.615Z,35.38
2022-08-08T09:06:37.376Z,34.20
2022-08-08T09:09:39.655Z,34.57
2022-08-08T09:12:20.050Z,34.18
2022-08-08T09:14:50.168Z,33.34
2022-08-08T09:17:40.683Z,34.35
2022-08-08T09:22:01.798Z,34.12
2022-08-08T09:23:01.742Z,33.71
2022-08-08T09:25:36.116Z,32.58
2022-08-08T09:28:35.480Z,33.55
2022-08-08T09:31:14.765Z,33.33
2022-08-08T09:34:06.218Z,33.03
2022-08-08T09:36:36.045Z,32.75
2022-08-08T09:39:10.301Z,32.78
2022-08-08T09:41:54.714Z,31.77
2022-08-08T09:44:53.237Z,32.47
2022-08-08T09:47:25.851Z,32.47
2022-08-08T09:50:19.832Z,31.60
2022-08-08T09:53:13.856Z,31.68
2022-08-08T09:56:04.408Z,32.15
2022-08-08T09:58:40.836Z,31.82
2022-08-08T10:01:59.448Z,32.64
2022-08-08T10:04:41.462Z,31.77
2022-08-08T10:07:07.395Z,32.09
2022-08-08T10:09:35.793Z,31.03
2022-08-08T10:12:38.378Z,31.26
2022-08-08T10:15:24.356Z,31.69
2022-08-08T10:18:05.557Z,31.90
2022-08-08T10:20:57.895Z,31.34
2022-08-08T10:23:41.939Z,30.68
2022-08-08T10:26:30.484Z,30.66
2022-08-08T10:29:13.027Z,31.14
2022-08-08T10:32:16.603Z,30.47
2022-08-08T10:34:57.131Z,30.72
2022-08-08T10:37:30.592Z,30.97
2022-08-08T10:40:02.479Z,31.11
2022-08-08T10:42:38.658Z,30.70
2022-08-08T10:45:24.040Z,31.48
2022-08-08T10:48:00.800Z,31.07
2022-08-08T10:50:35.459Z,31.21
2022-08-08T10:53:11.725Z,31.69
2022-08-08T10:55:46.681Z,31.32
2022-08-08T10:58:15.592Z,31.69
2022-08-08T11:00:48.979Z,31.34
2022-08-08T11:03:36.747Z,30.88
2022-08-08T11:06:12.740Z,29.53
2022-08-08T11:08:53.154Z,30.51
2022-08-08T11:11:31.716Z,29.87
2022-08-08T11:14:02.748Z,29.17
2022-08-08T11:16:34.460Z,29.19
2022-08-08T11:19:04.774Z,30.10
2022-08-08T11:21:37.742Z,30.14
2022-08-08T11:24:06.143Z,30.45
2022-08-08T11:26:38.340Z,29.70
2022-08-08T11:29:41.901Z,28.94
2022-08-08T11:32:16.549Z,28.75
2022-08-08T11:35:24.416Z,29.50
2022-08-08T11:38:38.581Z,29.34
2022-08-08T11:40:31.475Z,29.00
2022-08-08T11:43:00.578Z,28.77
2022-08-08T11:45:29.842Z,28.30
2022-08-08T11:48:09.803Z,28.81
2022-08-08T11:50:38.189Z,29.07
2022-08-08T11:53:06.681Z,27.96
2022-08-08T11:55:57.113Z,28.62
2022-08-08T11:58:43.242Z,29.03
2022-08-08T12:01:12.348Z,28.48
2022-08-08T12:03:50.185Z,28.31
2022-08-08T12:06:19.232Z,27.66
2022-08-08T12:08:48.812Z,27.65
2022-08-08T12:11:26.936Z,28.94
2022-08-08T12:14:04.626Z,28.97
2022-08-08T12:16:42.007Z,28.23
2022-08-08T12:19:15.352Z,28.58
2022-08-08T12:22:00.086Z,29.30
2022-08-08T12:24:30.673Z,28.68
2022-08-08T12:26:59.217Z,29.42
2022-08-08T12:29:40.991Z,28.83
2022-08-08T12:32:20.186Z,27.79
2022-08-08T12:34:51.169Z,28.99
2022-08-08T12:37:41.113Z,28.14
2022-08-08T12:40:23.066Z,28.70
2022-08-08T12:42:53.290Z,28.77
2022-08-08T12:45:59.937Z,28.37
2022-08-08T12:48:37.297Z,29.16
2022-08-08T12:51:07.802Z,29.18
2022-08-08T12:53:57.563Z,28.96
2022-08-08T12:56:34.497Z,29.20
2022-08-08T12:59:13.098Z,29.57
2022-08-08T13:01:42.307Z,31.02
2022-08-08T13:04:24.588Z,30.20
2022-08-08T13:07:03.118Z,30.47
2022-08-08T13:10:04.350Z,30.53
2022-08-08T13:12:44.411Z,29.98
2022-08-08T13:15:17.260Z,29.89
2022-08-08T13:18:09.045Z,29.93
2022-08-08T13:20:45.189Z,30.31
2022-08-08T13:23:41.278Z,30.15
2022-08-08T13:26:14.871Z,29.32
2022-08-08T13:28:45.716Z,29.57
2022-08-08T13:31:16.335Z,31.53
2022-08-08T13:33:50.041Z,30.39
2022-08-08T13:36:25.698Z,30.64
2022-08-08T13:39:00.265Z,32.40
2022-08-08T13:41:37.907Z,29.93
2022-08-08T13:44:11.373Z,30.65
2022-08-08T13:46:39.626Z,30.69
2022-08-08T13:50:35.690Z,30.41
2022-08-08T13:52:07.644Z,30.84
2022-08-08T13:54:44.430Z,31.56
2022-08-08T13:57:17.630Z,31.30
2022-08-08T14:00:08.821Z,31.33
2022-08-08T14:02:41.263Z,34.56
2022-08-08T14:05:21.995Z,31.88
2022-08-08T14:07:52.012Z,31.94
2022-08-08T14:10:33.106Z,32.83
2022-08-08T14:13:30.610Z,31.89
2022-08-08T14:16:03.414Z,30.95
2022-08-08T14:18:36.587Z,31.16
2022-08-08T14:21:20.935Z,31.10
2022-08-08T14:24:07.184Z,31.04
2022-08-08T14:26:46.335Z,30.74
2022-08-08T14:29:28.077Z,30.33
2022-08-08T14:32:10.859Z,30.93
2022-08-08T14:34:45.392Z,30.58
2022-08-08T14:37:17.754Z,29.46
2022-08-08T14:39:53.992Z,29.27
2022-08-08T14:42:54.496Z,29.35
2022-08-08T14:45:33.306Z,29.31
2022-08-08T14:48:27.453Z,29.83
2022-08-08T14:51:07.121Z,30.12
2022-08-08T14:53:37.413Z,30.71
2022-08-08T14:56:24.835Z,30.75
2022-08-08T14:58:54.865Z,31.01
2022-08-08T15:01:37.510Z,30.80
2022-08-08T15:04:10.998Z,31.14
2022-08-08T15:06:38.943Z,31.44
2022-08-08T15:09:07.143Z,31.36
2022-08-08T15:11:46.010Z,31.53
2022-08-08T15:14:15.117Z,31.21
2022-08-08T15:16:44.237Z,31.20
2022-08-08T15:19:15.077Z,31.64
2022-08-08T15:21:44.709Z,31.55
2022-08-08T15:24:13.887Z,31.75
2022-08-08T15:26:52.979Z,32.09
2022-08-08T15:29:24.251Z,30.98
2022-08-08T15:32:18.113Z,31.19
2022-08-08T15:34:41.235Z,31.42
2022-08-08T15:37:10.074Z,31.69
2022-08-08T15:39:40.998Z,31.74
2022-08-08T15:42:13.010Z,31.89
2022-08-08T15:44:42.278Z,31.51
2022-08-08T15:47:15.674Z,31.67
2022-08-08T15:49:48.264Z,31.90
2022-08-08T15:52:20.686Z,32.04
2022-08-08T15:54:51.766Z,32.90
2022-08-08T15:57:21.492Z,33.01
2022-08-08T16:00:06.618Z,33.25
2022-08-08T16:02:44.025Z,33.59
2022-08-08T16:05:20.590Z,34.05
2022-08-08T16:07:53.174Z,34.05
2022-08-08T16:13:12.124Z,34.43
2022-08-08T16:13:33.448Z,34.63
2022-08-08T16:16:03.369Z,34.79
2022-08-08T16:18:37.535Z,34.73
2022-08-08T16:21:20.647Z,34.98
2022-08-08T16:23:55.373Z,34.86
2022-08-08T16:26:34.497Z,34.65
2022-08-08T16:29:16.198Z,34.83
2022-08-08T16:31:48.592Z,34.96
2022-08-08T16:34:19.800Z,35.30
2022-08-08T16:36:50.256Z,35.98
2022-08-08T16:39:59.583Z,36.25
2022-08-08T16:42:13.879Z,35.54
2022-08-08T16:44:54.183Z,35.76
2022-08-08T16:47:41.426Z,35.51
2022-08-08T16:50:16.403Z,36.17
2022-08-08T16:55:01.831Z,36.03
2022-08-08T16:55:53.772Z,35.97
2022-08-08T16:58:27.009Z,36.29
2022-08-08T17:01:00.164Z,36.40
2022-08-08T17:03:59.741Z,36.47
2022-08-08T17:06:35.224Z,36.72
2022-08-08T17:09:04.704Z,36.79
2022-08-08T17:11:48.204Z,37.26
2022-08-08T17:14:19.630Z,37.15
2022-08-08T17:16:57.733Z,37.07
2022-08-08T17:19:30.372Z,37.21
2022-08-08T17:22:06.113Z,37.33
2022-08-08T17:24:33.964Z,37.30
2022-08-08T17:27:02.913Z,37.57
2022-08-08T17:29:36.528Z,37.85
2022-08-08T17:32:10.907Z,38.02
2022-08-08T17:35:14.558Z,38.08
2022-08-08T17:37:27.547Z,38.20
2022-08-08T17:40:05.616Z,38.20
2022-08-08T17:42:41.623Z,38.46
2022-08-08T17:45:23.180Z,38.27
2022-08-08T17:47:53.812Z,38.49
2022-08-08T17:50:24.759Z,38.45
2022-08-08T17:52:53.615Z,38.58
2022-08-08T17:56:06.789Z,38.81
2022-08-08T17:58:09.116Z,39.74
2022-08-08T18:00:41.124Z,41.93
2022-08-08T18:03:13.300Z,42.50
2022-08-08T18:05:49.546Z,42.92
2022-08-08T18:08:25.131Z,43.35
2022-08-08T18:11:07.323Z,43.76
2022-08-08T18:13:42.016Z,44.10
2022-08-08T18:16:11.304Z,44.22
2022-08-08T18:18:42.858Z,44.38
2022-08-08T18:21:35.403Z,44.64
2022-08-08T18:24:17.442Z,44.90
2022-08-08T18:26:54.730Z,45.24
2022-08-08T18:29:33.303Z,45.57
2022-08-08T18:32:04.418Z,45.72
2022-08-08T18:34:33.818Z,45.74
2022-08-08T18:37:08.003Z,45.67
2022-08-08T18:39:42.082Z,45.92
2022-08-08T18:42:14.385Z,46.13
2022-08-08T18:44:55.961Z,46.59
2022-08-08T18:47:26.313Z,46.81
2022-08-08T18:50:00.354Z,47.14
2022-08-08T18:52:33.350Z,47.42
2022-08-08T18:55:10.095Z,47.60
2022-08-08T18:57:44.587Z,47.67
2022-08-08T19:00:20.339Z,48.09
2022-08-08T19:03:01.618Z,48.31
2022-08-08T19:05:38.443Z,48.20
2022-08-08T19:08:25.245Z,48.39
2022-08-08T19:11:01.570Z,48.47
2022-08-08T19:13:53.149Z,48.74
2022-08-08T19:16:20.409Z,49.08
2022-08-08T19:19:02.265Z,49.28
2022-08-08T19:21:33.643Z,49.58
2022-08-08T19:24:33.998Z,49.74
2022-08-08T19:27:04.028Z,49.75
2022-08-08T19:29:31.686Z,50.00
2022-08-08T19:32:02.039Z,50.36
2022-08-08T19:34:38.713Z,50.29
2022-08-08T19:37:16.439Z,50.33
2022-08-08T19:39:46.126Z,50.59
2022-08-08T19:42:25.496Z,50.68
2022-08-08T19:44:54.037Z,51.20
2022-08-08T19:47:24.533Z,51.04
2022-08-08T19:49:59.282Z,51.01
2022-08-08T19:52:34.653Z,51.39
2022-08-08T19:55:09.581Z,51.34
2022-08-08T19:57:44.704Z,51.81
2022-08-08T20:00:30.097Z,51.83
2022-08-08T20:03:00.672Z,51.59
2022-08-08T20:06:14.117Z,51.49
2022-08-08T20:08:28.727Z,51.40
2022-08-08T20:11:00.593Z,51.27
2022-08-08T20:14:33.406Z,51.50
2022-08-08T20:16:18.759Z,51.58
2022-08-08T20:18:53.202Z,51.79
2022-08-08T20:21:25.541Z,51.79
2022-08-08T20:23:57.906Z,51.73
2022-08-08T20:26:33.672Z,52.00
2022-08-08T20:29:04.043Z,52.30
2022-08-08T20:32:07.081Z,52.69
2022-08-08T20:34:30.212Z,53.58
2022-08-08T20:37:00.223Z,53.14
2022-08-08T20:39:33.680Z,53.72
2022-08-08T20:42:09.071Z,54.35
2022-08-08T20:44:37.787Z,54.80
2022-08-08T20:47:16.025Z,54.18
2022-08-08T20:49:54.549Z,53.99
2022-08-08T20:52:27.619Z,53.88
2022-08-08T20:54:57.133Z,54.37
2022-08-08T20:57:26.848Z,54.74
2022-08-08T20:59:57.277Z,55.28
2022-08-08T21:02:27.526Z,55.25
2022-08-08T21:05:00.554Z,55.81
2022-08-08T21:07:46.885Z,55.34
2022-08-08T21:10:16.532Z,54.72
2022-08-08T21:12:44.623Z,54.49
2022-08-08T21:15:16.555Z,54.31
2022-08-08T21:18:02.861Z,54.45
2022-08-08T21:20:34.277Z,54.31
2022-08-08T21:23:03.218Z,54.43
2022-08-08T21:25:36.000Z,55.99
2022-08-08T21:28:15.733Z,54.53
2022-08-08T21:30:45.158Z,53.99
2022-08-08T21:33:17.173Z,54.02
2022-08-08T21:36:13.951Z,53.45
2022-08-08T21:38:32.514Z,53.14
2022-08-08T21:41:00.041Z,53.37
2022-08-08T21:43:33.138Z,52.86
2022-08-08T21:48:05.108Z,53.02
2022-08-08T21:48:56.101Z,55.27
2022-08-08T21:54:18.265Z,53.25
2022-08-08T21:54:50.527Z,53.47
2022-08-08T21:57:06.748Z,53.71
2022-08-08T22:00:03.359Z,54.03
2022-08-08T22:02:24.067Z,54.13
2022-08-08T22:04:53.288Z,55.47
2022-08-08T22:07:26.184Z,54.46
2022-08-08T22:10:18.434Z,54.35
2022-08-08T22:13:16.591Z,56.11
2022-08-08T22:15:58.503Z,54.75
2022-08-08T22:18:33.481Z,54.77
2022-08-08T22:21:14.698Z,55.09
2022-08-08T22:23:50.888Z,55.11
2022-08-08T22:26:27.817Z,55.65
2022-08-08T22:29:04.259Z,55.81
2022-08-08T22:31:35.134Z,56.16
2022-08-08T22:34:13.391Z,57.43
2022-08-08T22:36:43.268Z,56.68
2022-08-08T22:39:19.242Z,57.03
2022-08-08T22:41:50.672Z,56.68
2022-08-08T22:44:19.519Z,57.21
2022-08-08T22:46:47.337Z,57.69
2022-08-08T22:49:20.291Z,57.83
2022-08-08T22:51:48.185Z,58.92
2022-08-08T22:54:32.898Z,57.84
2022-08-08T22:57:11.552Z,58.16
2022-08-08T22:59:58.654Z,58.10
2022-08-08T23:02:28.843Z,59.03
2022-08-08T23:04:57.819Z,58.79
2022-08-08T23:07:51.178Z,59.84
2022-08-08T23:10:19.716Z,58.66
2022-08-08T23:12:51.757Z,59.15
2022-08-08T23:16:38.155Z,58.76
2022-08-08T23:18:11.903Z,59.60
2022-08-08T23:20:43.472Z,58.97
2022-08-08T23:23:12.743Z,59.99
2022-08-08T23:25:47.882Z,59.31
2022-08-08T23:28:18.588Z,59.58
2022-08-08T23:30:47.468Z,59.55
2022-08-08T23:33:20.996Z,59.92
2022-08-08T23:36:08.582Z,59.71
2022-08-08T23:38:41.834Z,59.89
2022-08-08T23:41:23.036Z,60.02
2022-08-08T23:43:57.081Z,60.42
2022-08-08T23:49:05.198Z,60.84
2022-08-08T23:49:18.109Z,60.33
2022-08-08T23:52:06.234Z,60.29
2022-08-08T23:54:43.454Z,60.46
2022-08-08T23:57:27.478Z,60.33
